createdAt,value
2018-10-17T00:01:34.934Z,18.70
2018-10-17T00:04:03.989Z,18.43
2018-10-17T00:06:33.084Z,19.93
2018-10-17T00:09:02.381Z,19.23
2018-10-17T00:11:31.578Z,18.70
2018-10-17T00:14:01.296Z,18.00
2018-10-17T00:16:30.880Z,18.67
2018-10-17T00:18:59.915Z,18.27
2018-10-17T00:21:29.018Z,18.40
2018-10-17T00:23:58.394Z,18.80
2018-10-17T00:26:27.515Z,18.97
2018-10-17T00:28:56.729Z,18.83
2018-10-17T00:31:26.024Z,20.13
2018-10-17T00:33:55.078Z,19.67
2018-10-17T00:36:24.185Z,19.00
2018-10-17T00:38:53.260Z,21.07
2018-10-17T00:41:22.452Z,20.37
2018-10-17T00:43:51.603Z,19.40
2018-10-17T00:46:20.704Z,19.90
2018-10-17T00:48:49.717Z,20.10
2018-10-17T00:51:18.871Z,19.50
2018-10-17T00:53:47.987Z,19.80
2018-10-17T00:56:17.618Z,18.87
2018-10-17T00:59:00.387Z,19.47
2018-10-17T01:01:29.530Z,18.27
2018-10-17T01:03:58.702Z,20.00
2018-10-17T01:06:28.464Z,18.93
2018-10-17T01:08:57.488Z,19.13
2018-10-17T01:11:26.653Z,20.27
2018-10-17T01:13:55.667Z,19.50
2018-10-17T01:16:24.914Z,19.33
2018-10-17T01:18:54.032Z,19.00
2018-10-17T01:21:23.262Z,19.53
2018-10-17T01:23:52.507Z,19.20
2018-10-17T01:26:22.245Z,18.90
2018-10-17T01:28:51.726Z,18.87
2018-10-17T01:31:21.094Z,18.70
2018-10-17T01:33:50.208Z,19.27
2018-10-17T01:36:20.314Z,18.83
2018-10-17T01:38:49.407Z,18.53
2018-10-17T01:41:18.707Z,18.23
2018-10-17T01:43:47.607Z,18.43
2018-10-17T01:46:16.630Z,19.13
2018-10-17T01:48:45.771Z,19.03
2018-10-17T01:51:14.841Z,17.97
2018-10-17T01:53:44.235Z,18.60
2018-10-17T01:56:13.301Z,18.67
2018-10-17T01:58:42.311Z,18.30
2018-10-17T02:01:11.486Z,19.30
2018-10-17T02:03:40.363Z,18.07
2018-10-17T02:06:09.454Z,20.10
2018-10-17T02:08:38.559Z,19.37
2018-10-17T02:11:07.749Z,19.43
2018-10-17T02:13:36.711Z,19.03
2018-10-17T02:16:05.770Z,22.30
2018-10-17T02:18:34.858Z,20.33
2018-10-17T02:21:03.951Z,20.20
2018-10-17T02:23:32.971Z,19.80
2018-10-17T02:26:02.145Z,20.90
2018-10-17T02:28:31.174Z,21.10
2018-10-17T02:31:00.206Z,21.57
2018-10-17T02:33:29.394Z,19.73
2018-10-17T02:35:58.367Z,19.97
2018-10-17T02:38:27.354Z,20.10
2018-10-17T02:40:56.436Z,21.37
2018-10-17T02:43:25.538Z,21.73
2018-10-17T02:45:54.531Z,20.10
2018-10-17T02:48:23.522Z,19.70
2018-10-17T02:50:52.512Z,19.37
2018-10-17T02:53:21.596Z,20.47
2018-10-17T02:55:50.591Z,21.00
2018-10-17T02:58:19.648Z,19.93
2018-10-17T03:00:48.760Z,21.23
2018-10-17T03:03:17.742Z,21.23
2018-10-17T03:05:46.866Z,20.30
2018-10-17T03:08:15.958Z,19.00
2018-10-17T03:10:45.027Z,20.20
2018-10-17T03:13:14.092Z,18.90
2018-10-17T03:15:43.154Z,18.63
2018-10-17T03:18:12.350Z,18.53
2018-10-17T03:20:41.547Z,18.53
2018-10-17T03:23:10.706Z,17.67
2018-10-17T03:25:39.814Z,19.23
2018-10-17T03:28:08.970Z,20.67
2018-10-17T03:30:37.987Z,19.87
2018-10-17T03:33:07.066Z,19.50
2018-10-17T03:35:36.160Z,21.23
2018-10-17T03:38:05.667Z,19.63
2018-10-17T03:40:34.951Z,21.70
2018-10-17T03:43:04.003Z,21.87
2018-10-17T03:45:33.041Z,22.37
2018-10-17T03:48:02.177Z,20.70
2018-10-17T03:50:31.167Z,21.67
2018-10-17T03:53:00.434Z,20.40
2018-10-17T03:55:29.616Z,20.97
2018-10-17T03:57:59.660Z,22.13
2018-10-17T04:00:28.755Z,21.93
2018-10-17T04:02:57.852Z,21.07
2018-10-17T04:05:26.985Z,21.33
2018-10-17T04:07:56.055Z,19.20
2018-10-17T04:10:25.231Z,19.33
2018-10-17T04:12:54.260Z,20.10
2018-10-17T04:15:23.230Z,20.23
2018-10-17T04:17:53.294Z,21.30
2018-10-17T04:20:22.520Z,20.60
2018-10-17T04:22:56.022Z,20.63
2018-10-17T04:25:25.646Z,20.53
2018-10-17T04:27:55.234Z,20.53
2018-10-17T04:30:25.813Z,19.70
2018-10-17T04:32:55.017Z,20.73
2018-10-17T04:35:24.037Z,20.37
2018-10-17T04:37:53.296Z,21.07
2018-10-17T04:40:23.114Z,22.30
2018-10-17T04:42:52.156Z,22.13
2018-10-17T04:45:21.711Z,23.67
2018-10-17T04:47:50.842Z,20.70
2018-10-17T04:50:20.049Z,21.30
2018-10-17T04:52:49.183Z,21.97
2018-10-17T04:55:18.405Z,21.60
2018-10-17T04:57:47.478Z,20.97
2018-10-17T05:00:16.497Z,21.10
2018-10-17T05:02:46.079Z,21.70
2018-10-17T05:05:16.175Z,21.27
2018-10-17T05:07:51.670Z,20.90
2018-10-17T05:10:20.798Z,21.63
2018-10-17T05:12:49.806Z,21.47
2018-10-17T05:15:19.074Z,22.03
2018-10-17T05:17:48.157Z,21.40
2018-10-17T05:20:17.198Z,23.40
2018-10-17T05:22:46.224Z,23.57
2018-10-17T05:25:15.321Z,22.17
2018-10-17T05:27:44.357Z,22.10
2018-10-17T05:30:13.396Z,22.30
2018-10-17T05:32:42.542Z,22.77
2018-10-17T05:35:11.654Z,23.77
2018-10-17T05:37:40.875Z,23.90
2018-10-17T05:40:09.959Z,23.13
2018-10-17T05:42:38.969Z,23.27
2018-10-17T05:45:08.431Z,23.10
2018-10-17T05:47:37.543Z,22.77
2018-10-17T05:50:06.754Z,22.00
2018-10-17T05:52:35.838Z,23.77
2018-10-17T05:55:05.433Z,23.73
2018-10-17T05:57:34.540Z,22.13
2018-10-17T06:00:03.759Z,23.37
2018-10-17T06:02:34.590Z,22.37
2018-10-17T06:05:03.636Z,22.20
2018-10-17T06:07:33.334Z,22.53
2018-10-17T06:10:02.566Z,23.37
2018-10-17T06:12:31.604Z,22.30
2018-10-17T06:15:00.617Z,22.87
2018-10-17T06:17:30.158Z,23.30
2018-10-17T06:19:59.099Z,23.10
2018-10-17T06:22:28.122Z,22.80
2018-10-17T06:24:57.263Z,24.10
2018-10-17T06:27:26.331Z,25.90
2018-10-17T06:29:55.378Z,22.90
2018-10-17T06:32:24.501Z,22.53
2018-10-17T06:34:53.624Z,23.17
2018-10-17T06:37:22.600Z,22.70
2018-10-17T06:39:51.770Z,23.47
2018-10-17T06:42:20.924Z,22.90
2018-10-17T06:44:49.961Z,24.10
2018-10-17T06:47:19.107Z,21.83
2018-10-17T06:49:48.067Z,25.03
2018-10-17T06:52:17.313Z,23.30
2018-10-17T06:54:46.416Z,22.77
2018-10-17T06:57:15.496Z,21.93
2018-10-17T06:59:44.657Z,22.60
2018-10-17T07:02:13.902Z,24.70
2018-10-17T07:04:43.006Z,25.47
2018-10-17T07:07:12.251Z,23.83
2018-10-17T07:09:41.407Z,23.00
2018-10-17T07:12:10.550Z,23.37
2018-10-17T07:14:39.637Z,22.30
2018-10-17T07:17:08.770Z,23.73
2018-10-17T07:19:37.790Z,23.90
2018-10-17T07:22:06.806Z,22.87
2018-10-17T07:24:35.829Z,23.33
2018-10-17T07:27:05.400Z,23.97
2018-10-17T07:29:34.633Z,24.07
2018-10-17T07:32:03.579Z,22.37
2018-10-17T07:34:32.744Z,25.27
2018-10-17T07:37:01.941Z,27.20
2018-10-17T07:39:30.992Z,24.10
2018-10-17T07:42:00.138Z,22.57
2018-10-17T07:44:29.228Z,22.80
2018-10-17T07:46:58.274Z,25.30
2018-10-17T07:49:27.333Z,23.50
2018-10-17T07:51:57.229Z,24.10
2018-10-17T07:54:26.476Z,24.00
2018-10-17T07:56:55.608Z,25.53
2018-10-17T07:59:24.712Z,24.37
2018-10-17T08:01:53.778Z,24.13
2018-10-17T08:04:22.989Z,23.13
2018-10-17T08:06:52.113Z,25.17
2018-10-17T08:09:21.249Z,26.17
2018-10-17T08:11:50.214Z,24.23
2018-10-17T08:14:19.417Z,25.37
2018-10-17T08:16:48.467Z,24.13
2018-10-17T08:19:17.461Z,24.37
2018-10-17T08:21:46.522Z,21.53
2018-10-17T08:24:15.679Z,23.23
2018-10-17T08:26:44.922Z,23.40
2018-10-17T08:29:14.684Z,24.53
2018-10-17T08:31:44.151Z,24.43
2018-10-17T08:34:13.494Z,25.07
2018-10-17T08:36:42.897Z,25.00
2018-10-17T08:39:12.677Z,25.00
2018-10-17T08:41:41.746Z,24.33
2018-10-17T08:44:10.989Z,23.30
2018-10-17T08:46:39.991Z,24.20
2018-10-17T08:49:09.299Z,24.07
2018-10-17T08:51:38.491Z,22.63
2018-10-17T08:54:08.555Z,23.13
2018-10-17T08:56:37.647Z,23.40
2018-10-17T08:59:06.647Z,22.30
2018-10-17T09:01:35.817Z,23.57
2018-10-17T09:04:05.199Z,20.20
2018-10-17T09:06:34.291Z,21.87
2018-10-17T09:09:03.527Z,21.27
2018-10-17T09:11:32.610Z,22.27
2018-10-17T09:14:01.784Z,21.30
2018-10-17T09:16:30.870Z,20.73
2018-10-17T09:18:59.844Z,22.70
2018-10-17T09:21:29.421Z,21.30
2018-10-17T09:23:59.508Z,20.53
2018-10-17T09:26:28.613Z,22.67
2018-10-17T09:28:57.702Z,19.53
2018-10-17T09:31:26.905Z,20.60
2018-10-17T09:33:56.172Z,21.70
2018-10-17T09:36:25.462Z,21.20
2018-10-17T09:38:55.214Z,22.20
2018-10-17T09:41:25.318Z,21.53
2018-10-17T09:43:54.384Z,21.40
2018-10-17T09:46:24.230Z,22.00
2018-10-17T09:48:54.361Z,22.27
2018-10-17T09:51:23.441Z,22.40
2018-10-17T09:53:52.683Z,22.73
2018-10-17T09:56:22.680Z,21.03
2018-10-17T09:58:52.411Z,20.90
2018-10-17T10:01:26.978Z,21.70
2018-10-17T10:03:56.184Z,20.30
2018-10-17T10:06:25.201Z,18.83
2018-10-17T10:08:54.214Z,21.57
2018-10-17T10:11:23.210Z,19.90
2018-10-17T10:13:52.274Z,21.03
2018-10-17T10:16:21.358Z,21.77
2018-10-17T10:18:50.386Z,22.33
2018-10-17T10:21:19.557Z,22.03
2018-10-17T10:23:48.979Z,21.53
2018-10-17T10:26:18.088Z,21.20
2018-10-17T10:28:47.168Z,20.07
2018-10-17T10:31:16.229Z,18.80
2018-10-17T10:33:45.557Z,24.83
2018-10-17T10:36:14.683Z,21.93
2018-10-17T10:38:43.935Z,24.43
2018-10-17T10:41:13.031Z,23.53
2018-10-17T10:43:42.198Z,22.07
2018-10-17T10:46:11.273Z,22.63
2018-10-17T10:48:40.408Z,22.43
2018-10-17T10:51:09.979Z,22.03
2018-10-17T10:53:39.060Z,23.03
2018-10-17T10:56:08.108Z,26.63
2018-10-17T10:58:37.355Z,25.57
2018-10-17T11:01:06.326Z,24.87
2018-10-17T11:03:35.631Z,25.67
2018-10-17T11:06:04.738Z,24.57
2018-10-17T11:08:33.941Z,26.10
2018-10-17T11:11:03.235Z,23.33
2018-10-17T11:13:32.331Z,23.93
2018-10-17T11:16:01.380Z,23.30
2018-10-17T11:18:30.701Z,23.47
2018-10-17T11:20:59.991Z,24.57
2018-10-17T11:23:28.935Z,24.17
2018-10-17T11:25:58.098Z,24.53
2018-10-17T11:28:27.880Z,25.07
2018-10-17T11:30:57.005Z,21.93
2018-10-17T11:33:27.975Z,21.23
2018-10-17T11:35:57.085Z,21.20
2018-10-17T11:38:26.142Z,23.83
2018-10-17T11:43:20.738Z,22.50
2018-10-17T11:45:49.839Z,21.70
2018-10-17T11:48:19.955Z,21.60
2018-10-17T11:50:48.954Z,19.50
2018-10-17T11:53:18.478Z,20.77
2018-10-17T11:55:47.501Z,19.77
2018-10-17T11:58:16.653Z,18.87
2018-10-17T12:00:45.765Z,15.13
2018-10-17T12:03:15.691Z,16.57
2018-10-17T12:05:45.106Z,16.50
2018-10-17T12:08:14.694Z,17.93
2018-10-17T12:10:43.855Z,16.90
2018-10-17T12:13:12.874Z,16.67
2018-10-17T12:15:42.640Z,17.17
2018-10-17T12:18:12.391Z,15.63
2018-10-17T12:20:41.476Z,15.50
2018-10-17T12:23:10.540Z,14.83
2018-10-17T12:25:39.706Z,17.40
2018-10-17T12:28:09.018Z,16.67
2018-10-17T12:30:37.876Z,16.17
2018-10-17T12:33:07.010Z,14.93
2018-10-17T12:35:36.745Z,14.77
2018-10-17T12:38:06.050Z,15.20
2018-10-17T12:40:35.312Z,14.00
2018-10-17T12:43:04.970Z,12.47
2018-10-17T12:45:34.097Z,15.83
2018-10-17T12:48:03.215Z,15.77
2018-10-17T12:50:32.354Z,14.13
2018-10-17T12:53:02.807Z,15.23
2018-10-17T12:55:31.914Z,16.57
2018-10-17T12:58:01.355Z,14.93
2018-10-17T13:00:30.406Z,16.20
2018-10-17T13:02:59.475Z,13.97
2018-10-17T13:05:28.773Z,13.30
2018-10-17T13:07:57.847Z,14.03
2018-10-17T13:10:27.072Z,14.23
2018-10-17T13:12:56.085Z,11.97
2018-10-17T13:15:25.177Z,13.97
2018-10-17T13:17:54.244Z,13.33
2018-10-17T13:20:23.317Z,13.00
2018-10-17T13:22:52.371Z,13.97
2018-10-17T13:25:21.498Z,13.53
2018-10-17T13:27:50.738Z,14.63
2018-10-17T13:30:20.350Z,12.43
2018-10-17T13:32:49.466Z,14.27
2018-10-17T13:35:18.674Z,11.80
2018-10-17T13:37:47.521Z,13.43
2018-10-17T13:40:16.694Z,13.23
2018-10-17T13:42:46.015Z,12.97
2018-10-17T13:45:15.226Z,11.63
2018-10-17T13:47:44.390Z,12.80
2018-10-17T13:50:13.420Z,12.23
2018-10-17T13:52:42.564Z,12.87
2018-10-17T13:55:11.615Z,12.50
2018-10-17T13:57:41.709Z,12.73
2018-10-17T14:00:12.170Z,12.30
2018-10-17T14:02:41.894Z,12.80
2018-10-17T14:05:10.895Z,11.73
2018-10-17T14:07:40.121Z,12.37
2018-10-17T14:10:09.365Z,12.37
2018-10-17T14:12:38.425Z,12.30
2018-10-17T14:15:07.579Z,10.93
2018-10-17T14:17:36.667Z,10.63
2018-10-17T14:20:05.861Z,10.53
2018-10-17T14:22:34.969Z,11.07
2018-10-17T14:25:04.167Z,10.43
2018-10-17T14:27:33.243Z,10.70
2018-10-17T14:30:02.520Z,10.03
2018-10-17T14:32:31.636Z,10.07
2018-10-17T14:35:00.700Z,9.73
2018-10-17T14:39:56.164Z,9.73
2018-10-17T14:42:25.430Z,9.00
2018-10-17T14:44:54.562Z,8.27
2018-10-17T14:47:23.561Z,9.47
2018-10-17T14:49:52.621Z,9.83
2018-10-17T14:52:21.725Z,9.50
2018-10-17T14:54:50.821Z,10.00
2018-10-17T14:57:20.302Z,11.47
2018-10-17T14:59:49.426Z,10.70
2018-10-17T15:02:18.586Z,10.80
2018-10-17T15:04:47.733Z,11.10
2018-10-17T15:07:17.827Z,9.87
2018-10-17T15:09:47.839Z,9.73
2018-10-17T15:12:16.988Z,9.57
2018-10-17T15:14:46.065Z,9.90
2018-10-17T15:17:15.173Z,10.60
2018-10-17T15:19:44.309Z,10.07
2018-10-17T15:22:13.497Z,10.27
2018-10-17T15:24:42.594Z,10.07
2018-10-17T15:27:11.670Z,9.40
2018-10-17T15:29:40.611Z,10.20
2018-10-17T15:32:09.880Z,10.73
2018-10-17T15:34:39.024Z,10.43
2018-10-17T15:37:08.388Z,9.47
2018-10-17T15:39:37.630Z,10.30
2018-10-17T15:42:06.784Z,9.80
2018-10-17T15:44:35.717Z,10.20
2018-10-17T15:47:05.082Z,10.23
2018-10-17T15:49:34.061Z,10.20
2018-10-17T15:52:03.761Z,10.83
2018-10-17T15:54:36.819Z,11.77
2018-10-17T15:57:05.971Z,9.93
2018-10-17T15:59:35.091Z,10.23
2018-10-17T16:02:04.486Z,10.80
2018-10-17T16:04:33.467Z,11.23
2018-10-17T16:07:02.569Z,11.10
2018-10-17T16:09:31.660Z,11.60
2018-10-17T16:12:00.797Z,11.70
2018-10-17T16:14:29.851Z,11.83
2018-10-17T16:16:58.877Z,11.73
2018-10-17T16:19:27.888Z,10.23
2018-10-17T16:21:56.926Z,10.67
2018-10-17T16:24:25.976Z,11.60
2018-10-17T16:26:55.066Z,11.57
2018-10-17T16:29:24.095Z,11.73
2018-10-17T16:31:53.148Z,11.13
2018-10-17T16:34:22.243Z,12.17
2018-10-17T16:36:51.268Z,11.57
2018-10-17T16:39:20.721Z,11.47
2018-10-17T16:41:49.930Z,11.63
2018-10-17T16:44:19.300Z,12.80
2018-10-17T16:46:48.212Z,12.00
2018-10-17T16:49:17.286Z,12.60
2018-10-17T16:51:46.766Z,12.73
2018-10-17T16:54:15.818Z,12.50
2018-10-17T16:56:44.813Z,12.47
2018-10-17T16:59:13.922Z,12.87
2018-10-17T17:01:43.002Z,13.07
2018-10-17T17:04:12.215Z,12.53
2018-10-17T17:06:41.849Z,11.80
2018-10-17T17:09:11.492Z,12.73
2018-10-17T17:11:40.423Z,12.43
2018-10-17T17:14:09.577Z,12.97
2018-10-17T17:16:38.682Z,13.27
2018-10-17T17:19:07.786Z,12.23
2018-10-17T17:21:37.815Z,13.57
2018-10-17T17:24:07.124Z,12.80
2018-10-17T17:26:36.218Z,12.77
2018-10-17T17:29:05.677Z,13.23
2018-10-17T17:31:34.706Z,13.03
2018-10-17T17:34:03.728Z,12.63
2018-10-17T17:36:33.794Z,12.60
2018-10-17T17:39:02.855Z,11.83
2018-10-17T17:41:31.925Z,12.40
2018-10-17T17:44:00.955Z,13.73
2018-10-17T17:46:30.253Z,12.87
2018-10-17T17:48:59.692Z,13.20
2018-10-17T17:51:31.640Z,13.67
2018-10-17T17:54:00.730Z,13.37
2018-10-17T17:56:29.928Z,13.50
2018-10-17T18:01:33.177Z,13.17
2018-10-17T18:04:02.403Z,13.67
2018-10-17T18:06:33.069Z,13.80
2018-10-17T18:09:03.119Z,15.20
2018-10-17T18:11:32.307Z,15.80
2018-10-17T18:14:01.682Z,18.23
2018-10-17T18:16:30.771Z,15.93
2018-10-17T18:19:00.713Z,17.03
2018-10-17T18:21:29.704Z,17.00
2018-10-17T18:23:59.485Z,17.10
2018-10-17T18:26:28.658Z,17.30
2018-10-17T18:28:57.734Z,16.67
2018-10-17T18:31:26.906Z,18.53
2018-10-17T18:33:56.136Z,18.27
2018-10-17T18:36:25.087Z,17.90
2018-10-17T18:38:54.147Z,17.90
2018-10-17T18:41:23.167Z,18.23
2018-10-17T18:43:52.221Z,18.43
2018-10-17T18:46:21.282Z,18.23
2018-10-17T18:48:50.294Z,18.53
2018-10-17T18:51:19.456Z,18.67
2018-10-17T18:53:48.363Z,20.73
2018-10-17T18:56:17.379Z,20.13
2018-10-17T18:58:46.446Z,21.07
2018-10-17T19:01:15.522Z,21.40
2018-10-17T19:03:44.754Z,21.07
2018-10-17T19:06:14.012Z,20.50
2018-10-17T19:08:43.116Z,21.57
2018-10-17T19:11:12.108Z,21.10
2018-10-17T19:13:41.252Z,21.77
2018-10-17T19:16:10.509Z,21.87
2018-10-17T19:18:39.626Z,21.17
2018-10-17T19:21:21.039Z,21.83
2018-10-17T19:23:50.135Z,21.50
2018-10-17T19:26:19.920Z,22.10
2018-10-17T19:28:49.448Z,22.97
2018-10-17T19:31:18.479Z,21.30
2018-10-17T19:33:47.540Z,22.07
2018-10-17T19:36:16.710Z,21.90
2018-10-17T19:38:45.727Z,22.70
2018-10-17T19:41:14.782Z,23.13
2018-10-17T19:43:44.189Z,23.57
2018-10-17T19:46:13.302Z,23.03
2018-10-17T19:48:42.362Z,23.17
2018-10-17T19:51:11.501Z,25.00
2018-10-17T19:53:40.493Z,24.80
2018-10-17T19:56:09.659Z,24.73
2018-10-17T19:58:38.819Z,23.20
2018-10-17T20:01:07.968Z,23.13
2018-10-17T20:03:37.090Z,23.17
2018-10-17T20:06:06.118Z,21.57
2018-10-17T20:08:35.514Z,22.70
2018-10-17T20:11:04.775Z,24.00
2018-10-17T20:13:34.345Z,23.47
2018-10-17T20:16:04.002Z,24.47
2018-10-17T20:18:33.156Z,24.53
2018-10-17T20:21:02.251Z,26.27
2018-10-17T20:23:31.215Z,25.23
2018-10-17T20:26:00.253Z,23.83
2018-10-17T20:28:29.307Z,25.07
2018-10-17T20:30:58.449Z,23.30
2018-10-17T20:33:27.530Z,24.03
2018-10-17T20:35:56.714Z,24.07
2018-10-17T20:38:26.016Z,22.43
2018-10-17T20:40:55.107Z,23.57
2018-10-17T20:43:24.154Z,24.33
2018-10-17T20:45:53.378Z,24.13
2018-10-17T20:48:22.494Z,22.77
2018-10-17T20:50:51.588Z,22.93
2018-10-17T20:53:21.442Z,23.13
2018-10-17T20:55:51.437Z,22.60
2018-10-17T20:58:20.502Z,23.50
2018-10-17T21:00:49.722Z,25.00
2018-10-17T21:03:18.761Z,24.07
2018-10-17T21:05:47.791Z,21.70
2018-10-17T21:08:17.000Z,25.03
2018-10-17T21:10:46.139Z,22.40
2018-10-17T21:13:15.507Z,22.37
2018-10-17T21:15:44.561Z,24.13
2018-10-17T21:18:13.583Z,21.80
2018-10-17T21:20:42.816Z,21.97
2018-10-17T21:23:11.913Z,22.60
2018-10-17T21:25:41.222Z,21.50
2018-10-17T21:28:10.283Z,23.00
2018-10-17T21:30:39.458Z,21.57
2018-10-17T21:33:08.716Z,23.23
2018-10-17T21:35:38.595Z,22.33
2018-10-17T21:38:07.606Z,22.50
2018-10-17T21:40:36.775Z,22.70
2018-10-17T21:43:05.853Z,24.07
2018-10-17T21:45:34.894Z,22.80
2018-10-17T21:48:03.945Z,22.73
2018-10-17T21:50:32.977Z,23.17
2018-10-17T21:53:02.033Z,22.47
2018-10-17T21:55:31.271Z,23.37
2018-10-17T21:58:00.375Z,23.27
2018-10-17T22:00:29.524Z,23.63
2018-10-17T22:02:58.665Z,23.80
2018-10-17T22:05:27.883Z,22.33
2018-10-17T22:07:56.913Z,23.60
2018-10-17T22:10:26.618Z,24.30
2018-10-17T22:12:55.718Z,26.87
2018-10-17T22:15:24.830Z,25.17
2018-10-17T22:17:53.822Z,24.93
2018-10-17T22:20:23.118Z,24.13
2018-10-17T22:22:52.339Z,23.10
2018-10-17T22:25:21.466Z,23.87
2018-10-17T22:27:50.495Z,26.00
2018-10-17T22:30:19.528Z,26.27
2018-10-17T22:32:48.599Z,24.57
2018-10-17T22:35:17.799Z,25.97
2018-10-17T22:37:47.212Z,25.37
2018-10-17T22:40:16.285Z,25.33
2018-10-17T22:42:45.375Z,23.83
2018-10-17T22:45:14.545Z,23.83
2018-10-17T22:47:43.549Z,25.00
2018-10-17T22:50:12.727Z,25.83
2018-10-17T22:52:41.862Z,22.60
2018-10-17T22:55:11.147Z,25.23
2018-10-17T22:57:40.070Z,24.17
2018-10-17T23:00:09.744Z,25.10
2018-10-17T23:02:39.025Z,23.57
2018-10-17T23:05:08.197Z,25.33
2018-10-17T23:07:37.250Z,25.57
2018-10-17T23:10:06.280Z,25.23
2018-10-17T23:12:35.399Z,23.80
2018-10-17T23:15:05.339Z,25.20
2018-10-17T23:17:34.906Z,25.77
2018-10-17T23:20:04.078Z,23.13
2018-10-17T23:22:33.449Z,21.47
2018-10-17T23:25:02.475Z,23.40
2018-10-17T23:27:31.698Z,23.13
2018-10-17T23:30:00.678Z,23.80
2018-10-17T23:32:29.788Z,24.00
2018-10-17T23:34:59.612Z,23.37
2018-10-17T23:37:28.718Z,23.37
2018-10-17T23:39:57.751Z,24.50
2018-10-17T23:42:26.920Z,23.87
2018-10-17T23:44:55.924Z,23.83
2018-10-17T23:47:25.230Z,24.30
2018-10-17T23:49:54.307Z,25.50
2018-10-17T23:52:23.306Z,24.23
2018-10-17T23:54:52.634Z,23.53
2018-10-17T23:57:21.640Z,23.47
2018-10-17T23:59:50.797Z,25.43
